sensor_id;sensor_type;location;lat;lon;timestamp;P1;durP1;ratioP1;P2;durP2;ratioP2
69404;SDS011;57084;52.046;5.632;2022-10-22T00:00:00;10.5;;;2.9;;
69404;SDS011;57084;52.046;5.632;2022-10-22T00:01:00;10.5;;;2.9;;
69404;SDS011;57084;52.046;5.632;2022-10-22T00:02:00;8.1;;;2.8;;
69404;SDS011;57084;52.046;5.632;2022-10-22T00:03:00;8.1;;;2.8;;
69404;SDS011;57084;52.046;5.632;2022-10-22T00:04:00;8.1;;;2.8;;
69404;SDS011;57084;52.046;5.632;2022-10-22T00:05:00;8.1;;;2.8;;
69404;SDS011;57084;52.046;5.632;2022-10-22T00:06:00;8.1;;;2.8;;
69404;SDS011;57084;52.046;5.632;2022-10-22T00:07:00;7.8;;;3.0;;
69404;SDS011;57084;52.046;5.632;2022-10-22T00:08:00;7.8;;;3.0;;
69404;SDS011;57084;52.046;5.632;2022-10-22T00:09:00;7.8;;;3.0;;
69404;SDS011;57084;52.046;5.632;2022-10-22T00:10:00;7.8;;;3.0;;
69404;SDS011;57084;52.046;5.632;2022-10-22T00:11:06;7.8;;;3.0;;
69404;SDS011;57084;52.046;5.632;2022-10-22T00:12:00;9.7;;;2.9;;
69404;SDS011;57084;52.046;5.632;2022-10-22T00:13:00;9.7;;;2.9;;
69404;SDS011;57084;52.046;5.632;2022-10-22T00:14:00;9.7;;;2.9;;
69404;SDS011;57084;52.046;5.632;2022-10-22T00:15:00;9.7;;;2.9;;
69404;SDS011;57084;52.046;5.632;2022-10-22T00:16:00;9.7;;;2.9;;
69404;SDS011;57084;52.046;5.632;2022-10-22T00:17:00;7.1;;;2.8;;
69404;SDS011;57084;52.046;5.632;2022-10-22T00:18:00;7.1;;;2.8;;
69404;SDS011;57084;52.046;5.632;2022-10-22T00:19:00;7.1;;;2.8;;
69404;SDS011;57084;52.046;5.632;2022-10-22T00:20:00;7.1;;;2.8;;
69404;SDS011;57084;52.046;5.632;2022-10-22T00:21:00;7.1;;;2.8;;
69404;SDS011;57084;52.046;5.632;2022-10-22T00:22:00;7.6;;;3.2;;
69404;SDS011;57084;52.046;5.632;2022-10-22T00:23:00;7.6;;;3.2;;
69404;SDS011;57084;52.046;5.632;2022-10-22T00:24:00;7.6;;;3.2;;
69404;SDS011;57084;52.046;5.632;2022-10-22T00:25:00;7.6;;;3.2;;
69404;SDS011;57084;52.046;5.632;2022-10-22T00:26:00;7.6;;;3.2;;
69404;SDS011;57084;52.046;5.632;2022-10-22T00:27:00;6.9;;;2.9;;
69404;SDS011;57084;52.046;5.632;2022-10-22T00:28:00;6.9;;;2.9;;
69404;SDS011;57084;52.046;5.632;2022-10-22T00:29:00;6.9;;;2.9;;
69404;SDS011;57084;52.046;5.632;2022-10-22T00:30:00;6.9;;;2.9;;
69404;SDS011;57084;52.046;5.632;2022-10-22T00:31:00;6.9;;;2.9;;
69404;SDS011;57084;52.046;5.632;2022-10-22T00:32:00;7.7;;;3.1;;
69404;SDS011;57084;52.046;5.632;2022-10-22T00:33:00;7.7;;;3.1;;
69404;SDS011;57084;52.046;5.632;2022-10-22T00:34:00;7.7;;;3.1;;
69404;SDS011;57084;52.046;5.632;2022-10-22T00:35:00;7.7;;;3.1;;
69404;SDS011;57084;52.046;5.632;2022-10-22T00:36:00;7.7;;;3.1;;
69404;SDS011;57084;52.046;5.632;2022-10-22T00:37:00;7.7;;;3.1;;
69404;SDS011;57084;52.046;5.632;2022-10-22T00:38:01;10.4;;;3.0;;
69404;SDS011;57084;52.046;5.632;2022-10-22T00:39:00;10.4;;;3.0;;
69404;SDS011;57084;52.046;5.632;2022-10-22T00:40:00;10.4;;;3.0;;
69404;SDS011;57084;52.046;5.632;2022-10-22T00:41:00;10.4;;;3.0;;
69404;SDS011;57084;52.046;5.632;2022-10-22T00:42:00;10.4;;;3.0;;
69404;SDS011;57084;52.046;5.632;2022-10-22T00:43:00;8.1;;;3.2;;
69404;SDS011;57084;52.046;5.632;2022-10-22T00:44:02;8.1;;;3.2;;
69404;SDS011;57084;52.046;5.632;2022-10-22T00:45:07;8.1;;;3.2;;
69404;SDS011;57084;52.046;5.632;2022-10-22T00:46:00;8.1;;;3.2;;
69404;SDS011;57084;52.046;5.632;2022-10-22T00:47:00;8.1;;;3.2;;
69404;SDS011;57084;52.046;5.632;2022-10-22T00:48:02;7.7;;;2.9;;
69404;SDS011;57084;52.046;5.632;2022-10-22T00:49:02;7.7;;;2.9;;
69404;SDS011;57084;52.046;5.632;2022-10-22T00:50:01;7.7;;;2.9;;
69404;SDS011;57084;52.046;5.632;2022-10-22T00:51:02;7.7;;;2.9;;
69404;SDS011;57084;52.046;5.632;2022-10-22T00:52:00;7.7;;;2.9;;
69404;SDS011;57084;52.046;5.632;2022-10-22T00:53:01;8.9;;;3.3;;
69404;SDS011;57084;52.046;5.632;2022-10-22T00:54:02;8.9;;;3.3;;
69404;SDS011;57084;52.046;5.632;2022-10-22T00:55:00;8.9;;;3.3;;
69404;SDS011;57084;52.046;5.632;2022-10-22T00:56:00;8.9;;;3.3;;
69404;SDS011;57084;52.046;5.632;2022-10-22T00:57:00;8.9;;;3.3;;
69404;SDS011;57084;52.046;5.632;2022-10-22T00:58:00;8.3;;;3.4;;
69404;SDS011;57084;52.046;5.632;2022-10-22T00:59:02;8.3;;;3.4;;
69404;SDS011;57084;52.046;5.632;2022-10-22T01:00:00;8.3;;;3.4;;
69404;SDS011;57084;52.046;5.632;2022-10-22T01:01:00;8.3;;;3.4;;
69404;SDS011;57084;52.046;5.632;2022-10-22T01:02:00;8.3;;;3.4;;
69404;SDS011;57084;52.046;5.632;2022-10-22T01:03:00;15.6;;;3.1;;
69404;SDS011;57084;52.046;5.632;2022-10-22T01:04:00;15.6;;;3.1;;
69404;SDS011;57084;52.046;5.632;2022-10-22T01:05:00;15.6;;;3.1;;
69404;SDS011;57084;52.046;5.632;2022-10-22T01:06:02;15.6;;;3.1;;
69404;SDS011;57084;52.046;5.632;2022-10-22T01:07:00;15.6;;;3.1;;
69404;SDS011;57084;52.046;5.632;2022-10-22T01:08:00;6.8;;;2.9;;
69404;SDS011;57084;52.046;5.632;2022-10-22T01:09:08;6.8;;;2.9;;
69404;SDS011;57084;52.046;5.632;2022-10-22T01:10:07;6.8;;;2.9;;
69404;SDS011;57084;52.046;5.632;2022-10-22T01:11:08;6.8;;;2.9;;
69404;SDS011;57084;52.046;5.632;2022-10-22T01:12:07;6.8;;;2.9;;
69404;SDS011;57084;52.046;5.632;2022-10-22T01:13:05;10.5;;;3.3;;
69404;SDS011;57084;52.046;5.632;2022-10-22T01:14:07;10.5;;;3.3;;
69404;SDS011;57084;52.046;5.632;2022-10-22T01:15:06;10.5;;;3.3;;
69404;SDS011;57084;52.046;5.632;2022-10-22T01:16:08;10.5;;;3.3;;
69404;SDS011;57084;52.046;5.632;2022-10-22T01:17:03;10.5;;;3.3;;
69404;SDS011;57084;52.046;5.632;2022-10-22T01:18:04;6.8;;;3.0;;
69404;SDS011;57084;52.046;5.632;2022-10-22T01:19:13;6.8;;;3.0;;
69404;SDS011;57084;52.046;5.632;2022-10-22T01:20:06;6.8;;;3.0;;
69404;SDS011;57084;52.046;5.632;2022-10-22T01:21:08;6.8;;;3.0;;
69404;SDS011;57084;52.046;5.632;2022-10-22T01:22:04;6.8;;;3.0;;
69404;SDS011;57084;52.046;5.632;2022-10-22T01:23:09;9.7;;;2.9;;
69404;SDS011;57084;52.046;5.632;2022-10-22T01:24:08;9.7;;;2.9;;
69404;SDS011;57084;52.046;5.632;2022-10-22T01:25:04;9.7;;;2.9;;
69404;SDS011;57084;52.046;5.632;2022-10-22T01:26:05;9.7;;;2.9;;
69404;SDS011;57084;52.046;5.632;2022-10-22T01:27:08;9.7;;;2.9;;
69404;SDS011;57084;52.046;5.632;2022-10-22T01:28:08;8.6;;;2.9;;
69404;SDS011;57084;52.046;5.632;2022-10-22T01:29:02;8.6;;;2.9;;
69404;SDS011;57084;52.046;5.632;2022-10-22T01:30:03;8.6;;;2.9;;
69404;SDS011;57084;52.046;5.632;2022-10-22T01:31:01;8.6;;;2.9;;
69404;SDS011;57084;52.046;5.632;2022-10-22T01:32:04;8.6;;;2.9;;
69404;SDS011;57084;52.046;5.632;2022-10-22T01:33:04;7.4;;;2.9;;
69404;SDS011;57084;52.046;5.632;2022-10-22T01:34:01;7.4;;;2.9;;
69404;SDS011;57084;52.046;5.632;2022-10-22T01:35:04;7.4;;;2.9;;
69404;SDS011;57084;52.046;5.632;2022-10-22T01:36:00;7.4;;;2.9;;
69404;SDS011;57084;52.046;5.632;2022-10-22T01:37:01;7.4;;;2.9;;
69404;SDS011;57084;52.046;5.632;2022-10-22T01:38:02;7.0;;;2.8;;
69404;SDS011;57084;52.046;5.632;2022-10-22T01:39:01;7.0;;;2.8;;
69404;SDS011;57084;52.046;5.632;2022-10-22T01:40:01;7.0;;;2.8;;
69404;SDS011;57084;52.046;5.632;2022-10-22T01:41:00;7.0;;;2.8;;
69404;SDS011;57084;52.046;5.632;2022-10-22T01:42:00;7.0;;;2.8;;
69404;SDS011;57084;52.046;5.632;2022-10-22T01:43:02;6.8;;;2.4;;
69404;SDS011;57084;52.046;5.632;2022-10-22T01:44:00;6.8;;;2.4;;
69404;SDS011;57084;52.046;5.632;2022-10-22T01:45:00;6.8;;;2.4;;
69404;SDS011;57084;52.046;5.632;2022-10-22T01:46:02;6.8;;;2.4;;
69404;SDS011;57084;52.046;5.632;2022-10-22T01:47:09;6.8;;;2.4;;
69404;SDS011;57084;52.046;5.632;2022-10-22T01:48:07;7.1;;;2.6;;
69404;SDS011;57084;52.046;5.632;2022-10-22T01:49:11;7.1;;;2.6;;
69404;SDS011;57084;52.046;5.632;2022-10-22T01:50:10;7.1;;;2.6;;
69404;SDS011;57084;52.046;5.632;2022-10-22T01:51:11;7.1;;;2.6;;
69404;SDS011;57084;52.046;5.632;2022-10-22T01:52:08;7.1;;;2.6;;
69404;SDS011;57084;52.046;5.632;2022-10-22T01:53:16;8.1;;;2.5;;
69404;SDS011;57084;52.046;5.632;2022-10-22T01:54:02;8.1;;;2.5;;
69404;SDS011;57084;52.046;5.632;2022-10-22T01:55:11;8.1;;;2.5;;
69404;SDS011;57084;52.046;5.632;2022-10-22T01:56:08;8.1;;;2.5;;
69404;SDS011;57084;52.046;5.632;2022-10-22T01:57:07;8.1;;;2.5;;
69404;SDS011;57084;52.046;5.632;2022-10-22T01:58:08;9.8;;;3.1;;
69404;SDS011;57084;52.046;5.632;2022-10-22T01:59:05;9.8;;;3.1;;
69404;SDS011;57084;52.046;5.632;2022-10-22T02:00:04;9.8;;;3.1;;
69404;SDS011;57084;52.046;5.632;2022-10-22T02:01:05;9.8;;;3.1;;
69404;SDS011;57084;52.046;5.632;2022-10-22T02:02:05;9.8;;;3.1;;
69404;SDS011;57084;52.046;5.632;2022-10-22T02:03:05;7.0;;;2.7;;
69404;SDS011;57084;52.046;5.632;2022-10-22T02:04:04;7.0;;;2.7;;
69404;SDS011;57084;52.046;5.632;2022-10-22T02:05:04;7.0;;;2.7;;
69404;SDS011;57084;52.046;5.632;2022-10-22T02:06:03;7.0;;;2.7;;
69404;SDS011;57084;52.046;5.632;2022-10-22T02:07:03;7.0;;;2.7;;
69404;SDS011;57084;52.046;5.632;2022-10-22T02:08:02;6.8;;;2.8;;
69404;SDS011;57084;52.046;5.632;2022-10-22T02:09:01;6.8;;;2.8;;
69404;SDS011;57084;52.046;5.632;2022-10-22T02:10:01;6.8;;;2.8;;
69404;SDS011;57084;52.046;5.632;2022-10-22T02:11:00;6.8;;;2.8;;
69404;SDS011;57084;52.046;5.632;2022-10-22T02:12:02;6.8;;;2.8;;
69404;SDS011;57084;52.046;5.632;2022-10-22T02:13:01;11.1;;;3.5;;
69404;SDS011;57084;52.046;5.632;2022-10-22T02:14:02;11.1;;;3.5;;
69404;SDS011;57084;52.046;5.632;2022-10-22T02:15:01;11.1;;;3.5;;
69404;SDS011;57084;52.046;5.632;2022-10-22T02:16:00;11.1;;;3.5;;
69404;SDS011;57084;52.046;5.632;2022-10-22T02:17:00;11.1;;;3.5;;
69404;SDS011;57084;52.046;5.632;2022-10-22T02:18:00;9.6;;;3.1;;
69404;SDS011;57084;52.046;5.632;2022-10-22T02:19:03;9.6;;;3.1;;
69404;SDS011;57084;52.046;5.632;2022-10-22T02:20:03;9.6;;;3.1;;
69404;SDS011;57084;52.046;5.632;2022-10-22T02:21:00;9.6;;;3.1;;
69404;SDS011;57084;52.046;5.632;2022-10-22T02:22:00;9.6;;;3.1;;
69404;SDS011;57084;52.046;5.632;2022-10-22T02:23:00;6.8;;;2.7;;
69404;SDS011;57084;52.046;5.632;2022-10-22T02:24:00;6.8;;;2.7;;
69404;SDS011;57084;52.046;5.632;2022-10-22T02:25:00;6.8;;;2.7;;
69404;SDS011;57084;52.046;5.632;2022-10-22T02:26:06;6.8;;;2.7;;
69404;SDS011;57084;52.046;5.632;2022-10-22T02:27:06;6.8;;;2.7;;
69404;SDS011;57084;52.046;5.632;2022-10-22T02:28:03;9.0;;;2.9;;
69404;SDS011;57084;52.046;5.632;2022-10-22T02:29:06;9.0;;;2.9;;
69404;SDS011;57084;52.046;5.632;2022-10-22T02:30:02;9.0;;;2.9;;
69404;SDS011;57084;52.046;5.632;2022-10-22T02:31:05;9.0;;;2.9;;
69404;SDS011;57084;52.046;5.632;2022-10-22T02:32:02;9.0;;;2.9;;
69404;SDS011;57084;52.046;5.632;2022-10-22T02:33:03;8.4;;;3.0;;
69404;SDS011;57084;52.046;5.632;2022-10-22T02:34:04;8.4;;;3.0;;
69404;SDS011;57084;52.046;5.632;2022-10-22T02:35:00;8.4;;;3.0;;
69404;SDS011;57084;52.046;5.632;2022-10-22T02:36:01;8.4;;;3.0;;
69404;SDS011;57084;52.046;5.632;2022-10-22T02:37:01;8.4;;;3.0;;
69404;SDS011;57084;52.046;5.632;2022-10-22T02:38:00;7.6;;;2.9;;
69404;SDS011;57084;52.046;5.632;2022-10-22T02:39:00;7.6;;;2.9;;
69404;SDS011;57084;52.046;5.632;2022-10-22T02:40:00;7.6;;;2.9;;
69404;SDS011;57084;52.046;5.632;2022-10-22T02:41:00;7.6;;;2.9;;
69404;SDS011;57084;52.046;5.632;2022-10-22T02:42:00;7.6;;;2.9;;
69404;SDS011;57084;52.046;5.632;2022-10-22T02:43:02;8.5;;;3.4;;
69404;SDS011;57084;52.046;5.632;2022-10-22T02:44:00;8.5;;;3.4;;
69404;SDS011;57084;52.046;5.632;2022-10-22T02:45:00;8.5;;;3.4;;
69404;SDS011;57084;52.046;5.632;2022-10-22T02:46:00;8.5;;;3.4;;
69404;SDS011;57084;52.046;5.632;2022-10-22T02:47:00;8.5;;;3.4;;
69404;SDS011;57084;52.046;5.632;2022-10-22T02:48:00;8.5;;;3.4;;
69404;SDS011;57084;52.046;5.632;2022-10-22T02:49:00;9.4;;;3.5;;
69404;SDS011;57084;52.046;5.632;2022-10-22T02:50:00;9.4;;;3.5;;
69404;SDS011;57084;52.046;5.632;2022-10-22T02:51:00;9.4;;;3.5;;
69404;SDS011;57084;52.046;5.632;2022-10-22T02:52:00;9.4;;;3.5;;
69404;SDS011;57084;52.046;5.632;2022-10-22T02:53:00;9.4;;;3.5;;
69404;SDS011;57084;52.046;5.632;2022-10-22T02:54:00;10.8;;;3.1;;
69404;SDS011;57084;52.046;5.632;2022-10-22T02:55:00;10.8;;;3.1;;
69404;SDS011;57084;52.046;5.632;2022-10-22T02:56:00;10.8;;;3.1;;
69404;SDS011;57084;52.046;5.632;2022-10-22T02:57:00;10.8;;;3.1;;
69404;SDS011;57084;52.046;5.632;2022-10-22T02:58:00;10.8;;;3.1;;
69404;SDS011;57084;52.046;5.632;2022-10-22T02:59:00;8.2;;;3.4;;
69404;SDS011;57084;52.046;5.632;2022-10-22T03:00:00;8.2;;;3.4;;
69404;SDS011;57084;52.046;5.632;2022-10-22T03:01:00;8.2;;;3.4;;
69404;SDS011;57084;52.046;5.632;2022-10-22T03:02:00;8.2;;;3.4;;
69404;SDS011;57084;52.046;5.632;2022-10-22T03:03:00;8.2;;;3.4;;
69404;SDS011;57084;52.046;5.632;2022-10-22T03:04:00;10.2;;;3.1;;
69404;SDS011;57084;52.046;5.632;2022-10-22T03:05:00;10.2;;;3.1;;
69404;SDS011;57084;52.046;5.632;2022-10-22T03:06:00;10.2;;;3.1;;
69404;SDS011;57084;52.046;5.632;2022-10-22T03:07:00;10.2;;;3.1;;
69404;SDS011;57084;52.046;5.632;2022-10-22T03:08:00;10.2;;;3.1;;
69404;SDS011;57084;52.046;5.632;2022-10-22T03:09:00;7.5;;;3.6;;
69404;SDS011;57084;52.046;5.632;2022-10-22T03:10:00;7.5;;;3.6;;
69404;SDS011;57084;52.046;5.632;2022-10-22T03:11:00;7.5;;;3.6;;
69404;SDS011;57084;52.046;5.632;2022-10-22T03:12:00;7.5;;;3.6;;
69404;SDS011;57084;52.046;5.632;2022-10-22T03:13:00;7.5;;;3.6;;
69404;SDS011;57084;52.046;5.632;2022-10-22T03:14:00;15.7;;;3.3;;
69404;SDS011;57084;52.046;5.632;2022-10-22T03:15:00;15.7;;;3.3;;
69404;SDS011;57084;52.046;5.632;2022-10-22T03:16:00;15.7;;;3.3;;
69404;SDS011;57084;52.046;5.632;2022-10-22T03:17:00;15.7;;;3.3;;
69404;SDS011;57084;52.046;5.632;2022-10-22T03:18:00;15.7;;;3.3;;
69404;SDS011;57084;52.046;5.632;2022-10-22T03:19:00;9.2;;;3.4;;
69404;SDS011;57084;52.046;5.632;2022-10-22T03:20:00;9.2;;;3.4;;
69404;SDS011;57084;52.046;5.632;2022-10-22T03:21:07;9.2;;;3.4;;
69404;SDS011;57084;52.046;5.632;2022-10-22T03:22:02;9.2;;;3.4;;
69404;SDS011;57084;52.046;5.632;2022-10-22T03:23:01;9.2;;;3.4;;
69404;SDS011;57084;52.046;5.632;2022-10-22T03:24:02;10.7;;;3.2;;
69404;SDS011;57084;52.046;5.632;2022-10-22T03:25:05;10.7;;;3.2;;
69404;SDS011;57084;52.046;5.632;2022-10-22T03:26:00;10.7;;;3.2;;
69404;SDS011;57084;52.046;5.632;2022-10-22T03:27:00;10.7;;;3.2;;
69404;SDS011;57084;52.046;5.632;2022-10-22T03:28:02;10.7;;;3.2;;
69404;SDS011;57084;52.046;5.632;2022-10-22T03:29:00;7.8;;;3.2;;
69404;SDS011;57084;52.046;5.632;2022-10-22T03:30:00;7.8;;;3.2;;
69404;SDS011;57084;52.046;5.632;2022-10-22T03:31:00;7.8;;;3.2;;
69404;SDS011;57084;52.046;5.632;2022-10-22T03:32:00;7.8;;;3.2;;
69404;SDS011;57084;52.046;5.632;2022-10-22T03:33:00;7.8;;;3.2;;
69404;SDS011;57084;52.046;5.632;2022-10-22T03:34:00;10.7;;;3.5;;
69404;SDS011;57084;52.046;5.632;2022-10-22T03:35:00;10.7;;;3.5;;
69404;SDS011;57084;52.046;5.632;2022-10-22T03:36:00;10.7;;;3.5;;
69404;SDS011;57084;52.046;5.632;2022-10-22T03:37:01;10.7;;;3.5;;
69404;SDS011;57084;52.046;5.632;2022-10-22T03:38:00;10.7;;;3.5;;
69404;SDS011;57084;52.046;5.632;2022-10-22T03:39:00;8.1;;;3.4;;
69404;SDS011;57084;52.046;5.632;2022-10-22T03:40:00;8.1;;;3.4;;
69404;SDS011;57084;52.046;5.632;2022-10-22T03:41:00;8.1;;;3.4;;
69404;SDS011;57084;52.046;5.632;2022-10-22T03:42:01;8.1;;;3.4;;
69404;SDS011;57084;52.046;5.632;2022-10-22T03:43:00;8.1;;;3.4;;
69404;SDS011;57084;52.046;5.632;2022-10-22T03:44:00;9.0;;;3.2;;
69404;SDS011;57084;52.046;5.632;2022-10-22T03:45:00;9.0;;;3.2;;
69404;SDS011;57084;52.046;5.632;2022-10-22T03:46:00;9.0;;;3.2;;
69404;SDS011;57084;52.046;5.632;2022-10-22T03:47:00;9.0;;;3.2;;
69404;SDS011;57084;52.046;5.632;2022-10-22T03:48:00;9.0;;;3.2;;
69404;SDS011;57084;52.046;5.632;2022-10-22T03:49:00;8.5;;;3.4;;
69404;SDS011;57084;52.046;5.632;2022-10-22T03:50:00;8.5;;;3.4;;
69404;SDS011;57084;52.046;5.632;2022-10-22T03:51:00;8.5;;;3.4;;
69404;SDS011;57084;52.046;5.632;2022-10-22T03:52:04;8.5;;;3.4;;
69404;SDS011;57084;52.046;5.632;2022-10-22T03:53:00;8.5;;;3.4;;
69404;SDS011;57084;52.046;5.632;2022-10-22T03:54:00;10.6;;;3.4;;
69404;SDS011;57084;52.046;5.632;2022-10-22T03:55:00;10.6;;;3.4;;
69404;SDS011;57084;52.046;5.632;2022-10-22T03:56:00;10.6;;;3.4;;
69404;SDS011;57084;52.046;5.632;2022-10-22T03:57:00;10.6;;;3.4;;
69404;SDS011;57084;52.046;5.632;2022-10-22T03:58:00;10.6;;;3.4;;
69404;SDS011;57084;52.046;5.632;2022-10-22T03:59:00;8.3;;;3.7;;
69404;SDS011;57084;52.046;5.632;2022-10-22T04:00:00;8.3;;;3.7;;
69404;SDS011;57084;52.046;5.632;2022-10-22T04:01:02;8.3;;;3.7;;
69404;SDS011;57084;52.046;5.632;2022-10-22T04:02:00;8.3;;;3.7;;
69404;SDS011;57084;52.046;5.632;2022-10-22T04:03:00;8.3;;;3.7;;
69404;SDS011;57084;52.046;5.632;2022-10-22T04:04:00;8.8;;;3.2;;
69404;SDS011;57084;52.046;5.632;2022-10-22T04:05:00;8.8;;;3.2;;
69404;SDS011;57084;52.046;5.632;2022-10-22T04:06:01;8.8;;;3.2;;
69404;SDS011;57084;52.046;5.632;2022-10-22T04:07:00;8.8;;;3.2;;
69404;SDS011;57084;52.046;5.632;2022-10-22T04:08:00;8.8;;;3.2;;
69404;SDS011;57084;52.046;5.632;2022-10-22T04:09:00;8.8;;;3.3;;
69404;SDS011;57084;52.046;5.632;2022-10-22T04:10:00;8.8;;;3.3;;
69404;SDS011;57084;52.046;5.632;2022-10-22T04:11:00;8.8;;;3.3;;
69404;SDS011;57084;52.046;5.632;2022-10-22T04:12:00;8.8;;;3.3;;
69404;SDS011;57084;52.046;5.632;2022-10-22T04:13:00;8.8;;;3.3;;
69404;SDS011;57084;52.046;5.632;2022-10-22T04:14:00;12.9;;;3.5;;
69404;SDS011;57084;52.046;5.632;2022-10-22T04:15:00;12.9;;;3.5;;
69404;SDS011;57084;52.046;5.632;2022-10-22T04:16:06;12.9;;;3.5;;
69404;SDS011;57084;52.046;5.632;2022-10-22T04:17:00;12.9;;;3.5;;
69404;SDS011;57084;52.046;5.632;2022-10-22T04:18:00;12.9;;;3.5;;
69404;SDS011;57084;52.046;5.632;2022-10-22T04:19:00;9.5;;;3.6;;
69404;SDS011;57084;52.046;5.632;2022-10-22T04:20:00;9.5;;;3.6;;
69404;SDS011;57084;52.046;5.632;2022-10-22T04:21:00;9.5;;;3.6;;
69404;SDS011;57084;52.046;5.632;2022-10-22T04:22:00;9.5;;;3.6;;
69404;SDS011;57084;52.046;5.632;2022-10-22T04:23:00;9.5;;;3.6;;
69404;SDS011;57084;52.046;5.632;2022-10-22T04:24:00;8.9;;;3.4;;
69404;SDS011;57084;52.046;5.632;2022-10-22T04:25:00;8.9;;;3.4;;
69404;SDS011;57084;52.046;5.632;2022-10-22T04:26:02;8.9;;;3.4;;
69404;SDS011;57084;52.046;5.632;2022-10-22T04:27:00;8.9;;;3.4;;
69404;SDS011;57084;52.046;5.632;2022-10-22T04:28:00;8.9;;;3.4;;
69404;SDS011;57084;52.046;5.632;2022-10-22T04:29:00;7.8;;;3.4;;
69404;SDS011;57084;52.046;5.632;2022-10-22T04:30:00;7.8;;;3.4;;
69404;SDS011;57084;52.046;5.632;2022-10-22T04:31:00;7.8;;;3.4;;
69404;SDS011;57084;52.046;5.632;2022-10-22T04:32:00;7.8;;;3.4;;
69404;SDS011;57084;52.046;5.632;2022-10-22T04:33:00;7.8;;;3.4;;
69404;SDS011;57084;52.046;5.632;2022-10-22T04:34:00;10.4;;;3.5;;
69404;SDS011;57084;52.046;5.632;2022-10-22T04:35:00;10.4;;;3.5;;
69404;SDS011;57084;52.046;5.632;2022-10-22T04:36:05;10.4;;;3.5;;
69404;SDS011;57084;52.046;5.632;2022-10-22T04:37:00;10.4;;;3.5;;
69404;SDS011;57084;52.046;5.632;2022-10-22T04:38:00;10.4;;;3.5;;
69404;SDS011;57084;52.046;5.632;2022-10-22T04:39:00;8.9;;;3.5;;
69404;SDS011;57084;52.046;5.632;2022-10-22T04:40:00;8.9;;;3.5;;
69404;SDS011;57084;52.046;5.632;2022-10-22T04:41:08;8.9;;;3.5;;
69404;SDS011;57084;52.046;5.632;2022-10-22T04:42:00;8.9;;;3.5;;
69404;SDS011;57084;52.046;5.632;2022-10-22T04:43:00;8.9;;;3.5;;
69404;SDS011;57084;52.046;5.632;2022-10-22T04:44:00;7.9;;;3.3;;
69404;SDS011;57084;52.046;5.632;2022-10-22T04:45:00;7.9;;;3.3;;
69404;SDS011;57084;52.046;5.632;2022-10-22T04:46:00;7.9;;;3.3;;
69404;SDS011;57084;52.046;5.632;2022-10-22T04:47:00;7.9;;;3.3;;
69404;SDS011;57084;52.046;5.632;2022-10-22T04:48:00;7.9;;;3.3;;
69404;SDS011;57084;52.046;5.632;2022-10-22T04:49:00;7.9;;;3.3;;
69404;SDS011;57084;52.046;5.632;2022-10-22T04:50:00;8.2;;;3.0;;
69404;SDS011;57084;52.046;5.632;2022-10-22T04:51:00;8.2;;;3.0;;
69404;SDS011;57084;52.046;5.632;2022-10-22T04:52:00;8.2;;;3.0;;
69404;SDS011;57084;52.046;5.632;2022-10-22T04:53:00;8.2;;;3.0;;
69404;SDS011;57084;52.046;5.632;2022-10-22T04:54:00;8.2;;;3.0;;
69404;SDS011;57084;52.046;5.632;2022-10-22T04:55:00;8.4;;;3.2;;
69404;SDS011;57084;52.046;5.632;2022-10-22T04:56:09;8.4;;;3.2;;
69404;SDS011;57084;52.046;5.632;2022-10-22T04:57:00;8.4;;;3.2;;
69404;SDS011;57084;52.046;5.632;2022-10-22T04:58:00;8.4;;;3.2;;
69404;SDS011;57084;52.046;5.632;2022-10-22T04:59:01;8.4;;;3.2;;
69404;SDS011;57084;52.046;5.632;2022-10-22T05:00:00;8.8;;;3.1;;
69404;SDS011;57084;52.046;5.632;2022-10-22T05:01:00;8.8;;;3.1;;
69404;SDS011;57084;52.046;5.632;2022-10-22T05:02:00;8.8;;;3.1;;
69404;SDS011;57084;52.046;5.632;2022-10-22T05:03:00;8.8;;;3.1;;
69404;SDS011;57084;52.046;5.632;2022-10-22T05:04:01;8.8;;;3.1;;
69404;SDS011;57084;52.046;5.632;2022-10-22T05:05:00;9.6;;;3.5;;
69404;SDS011;57084;52.046;5.632;2022-10-22T05:06:00;9.6;;;3.5;;
69404;SDS011;57084;52.046;5.632;2022-10-22T05:07:00;9.6;;;3.5;;
69404;SDS011;57084;52.046;5.632;2022-10-22T05:08:00;9.6;;;3.5;;
69404;SDS011;57084;52.046;5.632;2022-10-22T05:09:04;9.6;;;3.5;;
69404;SDS011;57084;52.046;5.632;2022-10-22T05:10:00;8.8;;;2.9;;
69404;SDS011;57084;52.046;5.632;2022-10-22T05:11:00;8.8;;;2.9;;
69404;SDS011;57084;52.046;5.632;2022-10-22T05:12:00;8.8;;;2.9;;
69404;SDS011;57084;52.046;5.632;2022-10-22T05:13:00;8.8;;;2.9;;
69404;SDS011;57084;52.046;5.632;2022-10-22T05:14:01;8.8;;;2.9;;
69404;SDS011;57084;52.046;5.632;2022-10-22T05:15:00;8.4;;;3.2;;
69404;SDS011;57084;52.046;5.632;2022-10-22T05:16:00;8.4;;;3.2;;
69404;SDS011;57084;52.046;5.632;2022-10-22T05:17:00;8.4;;;3.2;;
69404;SDS011;57084;52.046;5.632;2022-10-22T05:18:00;8.4;;;3.2;;
69404;SDS011;57084;52.046;5.632;2022-10-22T05:19:01;8.4;;;3.2;;
69404;SDS011;57084;52.046;5.632;2022-10-22T05:20:00;9.6;;;3.2;;
69404;SDS011;57084;52.046;5.632;2022-10-22T05:21:00;9.6;;;3.2;;
69404;SDS011;57084;52.046;5.632;2022-10-22T05:22:01;9.6;;;3.2;;
69404;SDS011;57084;52.046;5.632;2022-10-22T05:23:00;9.6;;;3.2;;
69404;SDS011;57084;52.046;5.632;2022-10-22T05:24:00;9.6;;;3.2;;
69404;SDS011;57084;52.046;5.632;2022-10-22T05:25:00;10.8;;;3.0;;
69404;SDS011;57084;52.046;5.632;2022-10-22T05:26:01;10.8;;;3.0;;
69404;SDS011;57084;52.046;5.632;2022-10-22T05:27:00;10.8;;;3.0;;
69404;SDS011;57084;52.046;5.632;2022-10-22T05:28:00;10.8;;;3.0;;
69404;SDS011;57084;52.046;5.632;2022-10-22T05:29:00;10.8;;;3.0;;
69404;SDS011;57084;52.046;5.632;2022-10-22T05:30:00;9.5;;;3.0;;
69404;SDS011;57084;52.046;5.632;2022-10-22T05:31:01;9.5;;;3.0;;
69404;SDS011;57084;52.046;5.632;2022-10-22T05:32:00;9.5;;;3.0;;
69404;SDS011;57084;52.046;5.632;2022-10-22T05:33:00;9.5;;;3.0;;
69404;SDS011;57084;52.046;5.632;2022-10-22T05:34:00;9.5;;;3.0;;
69404;SDS011;57084;52.046;5.632;2022-10-22T05:35:00;9.9;;;3.1;;
69404;SDS011;57084;52.046;5.632;2022-10-22T05:36:01;9.9;;;3.1;;
69404;SDS011;57084;52.046;5.632;2022-10-22T05:37:00;9.9;;;3.1;;
69404;SDS011;57084;52.046;5.632;2022-10-22T05:38:00;9.9;;;3.1;;
69404;SDS011;57084;52.046;5.632;2022-10-22T05:39:00;9.9;;;3.1;;
69404;SDS011;57084;52.046;5.632;2022-10-22T05:40:00;13.9;;;3.2;;
69404;SDS011;57084;52.046;5.632;2022-10-22T05:41:00;13.9;;;3.2;;
69404;SDS011;57084;52.046;5.632;2022-10-22T05:42:00;13.9;;;3.2;;
69404;SDS011;57084;52.046;5.632;2022-10-22T05:43:00;13.9;;;3.2;;
69404;SDS011;57084;52.046;5.632;2022-10-22T05:44:00;13.9;;;3.2;;
69404;SDS011;57084;52.046;5.632;2022-10-22T05:45:00;12.2;;;3.5;;
69404;SDS011;57084;52.046;5.632;2022-10-22T05:46:01;12.2;;;3.5;;
69404;SDS011;57084;52.046;5.632;2022-10-22T05:47:00;12.2;;;3.5;;
69404;SDS011;57084;52.046;5.632;2022-10-22T05:48:00;12.2;;;3.5;;
69404;SDS011;57084;52.046;5.632;2022-10-22T05:49:02;12.2;;;3.5;;
69404;SDS011;57084;52.046;5.632;2022-10-22T05:50:00;10.4;;;3.1;;
69404;SDS011;57084;52.046;5.632;2022-10-22T05:51:01;10.4;;;3.1;;
69404;SDS011;57084;52.046;5.632;2022-10-22T05:52:00;10.4;;;3.1;;
69404;SDS011;57084;52.046;5.632;2022-10-22T05:53:00;10.4;;;3.1;;
69404;SDS011;57084;52.046;5.632;2022-10-22T05:54:02;10.4;;;3.1;;
69404;SDS011;57084;52.046;5.632;2022-10-22T05:55:00;10.0;;;3.1;;
69404;SDS011;57084;52.046;5.632;2022-10-22T05:56:00;10.0;;;3.1;;
69404;SDS011;57084;52.046;5.632;2022-10-22T05:57:00;10.0;;;3.1;;
69404;SDS011;57084;52.046;5.632;2022-10-22T05:58:00;10.0;;;3.1;;
69404;SDS011;57084;52.046;5.632;2022-10-22T05:59:00;10.0;;;3.1;;
69404;SDS011;57084;52.046;5.632;2022-10-22T06:00:00;7.4;;;2.8;;
69404;SDS011;57084;52.046;5.632;2022-10-22T06:01:01;7.4;;;2.8;;
69404;SDS011;57084;52.046;5.632;2022-10-22T06:02:00;7.4;;;2.8;;
69404;SDS011;57084;52.046;5.632;2022-10-22T06:03:00;7.4;;;2.8;;
69404;SDS011;57084;52.046;5.632;2022-10-22T06:04:02;7.4;;;2.8;;
69404;SDS011;57084;52.046;5.632;2022-10-22T06:05:00;8.7;;;3.2;;
69404;SDS011;57084;52.046;5.632;2022-10-22T06:06:01;8.7;;;3.2;;
69404;SDS011;57084;52.046;5.632;2022-10-22T06:07:01;8.7;;;3.2;;
69404;SDS011;57084;52.046;5.632;2022-10-22T06:08:00;8.7;;;3.2;;
69404;SDS011;57084;52.046;5.632;2022-10-22T06:09:02;8.7;;;3.2;;
69404;SDS011;57084;52.046;5.632;2022-10-22T06:10:00;9.0;;;3.2;;
69404;SDS011;57084;52.046;5.632;2022-10-22T06:11:00;9.0;;;3.2;;